createdAt,value
2022-08-17T00:02:26.152Z,43.69
2022-08-17T00:04:55.476Z,43.80
2022-08-17T00:07:23.058Z,43.70
2022-08-17T00:09:50.356Z,43.60
2022-08-17T00:12:43.682Z,43.86
2022-08-17T00:15:08.346Z,43.49
2022-08-17T00:17:38.157Z,43.91
2022-08-17T00:20:06.440Z,43.65
2022-08-17T00:22:36.312Z,43.98
2022-08-17T00:25:12.992Z,43.96
2022-08-17T00:27:40.828Z,43.74
2022-08-17T00:30:11.246Z,43.91
2022-08-17T00:33:14.163Z,43.92
2022-08-17T00:35:30.602Z,44.22
2022-08-17T00:37:57.600Z,44.14
2022-08-17T00:40:24.908Z,44.11
2022-08-17T00:42:53.447Z,44.29
2022-08-17T00:45:20.944Z,44.42
2022-08-17T00:47:48.346Z,44.88
2022-08-17T00:50:18.847Z,44.49
2022-08-17T00:52:54.880Z,44.96
2022-08-17T00:55:24.331Z,44.54
2022-08-17T00:58:00.126Z,44.64
2022-08-17T01:00:39.323Z,44.35
2022-08-17T01:03:15.130Z,45.04
2022-08-17T01:05:42.805Z,44.84
2022-08-17T01:08:16.709Z,45.46
2022-08-17T01:11:00.582Z,44.93
2022-08-17T01:13:41.230Z,44.95
2022-08-17T01:16:28.730Z,44.80
2022-08-17T01:19:05.057Z,44.98
2022-08-17T01:21:53.054Z,45.10
2022-08-17T01:24:20.093Z,44.88
2022-08-17T01:26:48.174Z,45.03
2022-08-17T01:29:16.545Z,44.61
2022-08-17T01:31:48.617Z,44.99
2022-08-17T01:34:17.890Z,44.79
2022-08-17T01:36:48.633Z,44.84
2022-08-17T01:39:31.463Z,44.70
2022-08-17T01:42:58.886Z,44.80
2022-08-17T01:45:33.801Z,44.67
2022-08-17T01:48:01.217Z,44.73
2022-08-17T01:50:35.068Z,44.58
2022-08-17T01:53:16.929Z,44.99
2022-08-17T01:55:52.134Z,44.79
2022-08-17T01:58:21.022Z,44.84
2022-08-17T02:01:00.934Z,44.65
2022-08-17T02:03:30.410Z,44.59
2022-08-17T02:05:58.069Z,45.01
2022-08-17T02:08:37.182Z,44.82
2022-08-17T02:11:13.708Z,44.41
2022-08-17T02:13:40.753Z,44.34
2022-08-17T02:16:07.735Z,44.23
2022-08-17T02:18:34.718Z,44.36
2022-08-17T02:21:02.189Z,44.42
2022-08-17T02:23:35.985Z,44.70
2022-08-17T02:26:03.232Z,45.07
2022-08-17T02:28:30.786Z,45.00
2022-08-17T02:31:03.584Z,45.93
2022-08-17T02:33:42.730Z,45.08
2022-08-17T02:36:12.845Z,45.32
2022-08-17T02:38:41.089Z,44.72
2022-08-17T02:41:08.919Z,45.00
2022-08-17T02:43:36.689Z,45.86
2022-08-17T02:46:03.689Z,45.67
2022-08-17T02:48:32.051Z,44.87
2022-08-17T02:51:00.716Z,45.37
2022-08-17T02:53:33.668Z,45.26
2022-08-17T02:56:03.946Z,46.13
2022-08-17T02:58:35.458Z,46.81
2022-08-17T03:01:09.705Z,46.20
2022-08-17T03:03:38.162Z,46.25
2022-08-17T03:06:06.254Z,48.13
2022-08-17T03:08:33.840Z,46.90
2022-08-17T03:11:00.862Z,47.38
2022-08-17T03:13:27.816Z,46.96
2022-08-17T03:15:54.844Z,46.96
2022-08-17T03:18:25.380Z,46.91
2022-08-17T03:20:59.938Z,47.13
2022-08-17T03:23:29.728Z,47.52
2022-08-17T03:25:57.875Z,47.54
2022-08-17T03:28:26.072Z,48.80
2022-08-17T03:30:53.346Z,49.30
2022-08-17T03:33:20.789Z,50.02
2022-08-17T03:35:48.529Z,47.96
2022-08-17T03:38:17.393Z,48.63
2022-08-17T03:40:57.603Z,49.38
2022-08-17T03:43:29.663Z,47.91
2022-08-17T03:46:28.123Z,48.92
2022-08-17T03:49:19.500Z,49.52
2022-08-17T03:52:05.419Z,50.12
2022-08-17T03:54:50.754Z,49.78
2022-08-17T03:57:19.097Z,49.77
2022-08-17T03:59:46.319Z,51.92
2022-08-17T04:02:24.695Z,50.49
2022-08-17T04:04:52.274Z,50.42
2022-08-17T04:07:22.834Z,50.54
2022-08-17T04:09:49.848Z,51.41
2022-08-17T04:12:22.128Z,52.73
2022-08-17T04:14:53.245Z,51.60
2022-08-17T04:17:24.689Z,52.38
2022-08-17T04:19:51.893Z,56.35
2022-08-17T04:22:32.314Z,54.58
2022-08-17T04:25:05.706Z,56.36
2022-08-17T04:27:32.724Z,56.34
2022-08-17T04:30:00.244Z,57.63
2022-08-17T04:33:03.471Z,56.99
2022-08-17T04:35:19.911Z,57.89
2022-08-17T04:37:47.398Z,57.31
2022-08-17T04:40:32.695Z,56.56
2022-08-17T04:43:16.466Z,57.42
2022-08-17T04:45:56.352Z,57.53
2022-08-17T04:48:35.466Z,57.66
2022-08-17T04:51:12.208Z,58.11
2022-08-17T04:53:54.096Z,57.03
2022-08-17T04:56:25.013Z,56.79
2022-08-17T04:58:55.028Z,56.67
2022-08-17T05:01:25.097Z,56.40
2022-08-17T05:03:56.156Z,57.23
2022-08-17T05:06:23.670Z,57.21
2022-08-17T05:08:50.754Z,57.26
2022-08-17T05:11:18.016Z,57.66
2022-08-17T05:13:45.149Z,57.54
2022-08-17T05:16:12.799Z,57.15
2022-08-17T05:18:39.823Z,59.18
2022-08-17T05:21:07.641Z,58.29
2022-08-17T05:23:42.553Z,58.16
2022-08-17T05:26:26.882Z,58.07
2022-08-17T05:28:59.634Z,58.06
2022-08-17T05:31:29.274Z,57.91
2022-08-17T05:33:56.440Z,58.00
2022-08-17T05:36:42.299Z,58.48
2022-08-17T05:39:16.341Z,57.91
2022-08-17T05:41:47.078Z,58.28
2022-08-17T05:44:14.769Z,57.10
2022-08-17T05:46:47.217Z,58.30
2022-08-17T05:49:17.106Z,58.88
2022-08-17T05:52:23.457Z,57.94
2022-08-17T05:55:18.034Z,58.13
2022-08-17T05:58:15.568Z,57.52
2022-08-17T06:01:47.681Z,59.98
2022-08-17T06:04:42.928Z,58.72
2022-08-17T06:07:40.356Z,58.67
2022-08-17T06:10:35.133Z,58.68
2022-08-17T06:13:14.369Z,57.79
2022-08-17T06:16:32.930Z,58.69
2022-08-17T06:19:11.119Z,58.17
2022-08-17T06:21:43.527Z,57.68
2022-08-17T06:24:23.865Z,58.28
2022-08-17T06:26:52.220Z,57.97
2022-08-17T06:29:41.733Z,58.60
2022-08-17T06:32:12.676Z,57.85
2022-08-17T06:34:41.948Z,57.88
2022-08-17T06:37:21.160Z,57.89
2022-08-17T06:39:58.957Z,57.19
2022-08-17T06:43:07.996Z,56.90
2022-08-17T06:45:43.318Z,56.52
2022-08-17T06:48:18.776Z,56.98
2022-08-17T06:50:59.975Z,56.01
2022-08-17T06:53:39.976Z,55.50
2022-08-17T06:56:09.877Z,55.43
2022-08-17T06:58:40.442Z,55.18
2022-08-17T07:01:16.849Z,55.11
2022-08-17T07:04:21.418Z,55.29
2022-08-17T07:07:27.123Z,55.18
2022-08-17T07:09:58.373Z,54.58
2022-08-17T07:12:38.334Z,54.86
2022-08-17T07:15:13.068Z,54.21
2022-08-17T07:17:48.093Z,54.40
2022-08-17T07:20:21.119Z,54.50
2022-08-17T07:23:07.268Z,55.01
2022-08-17T07:25:35.048Z,55.15
2022-08-17T07:28:07.670Z,55.70
2022-08-17T07:30:54.973Z,55.33
2022-08-17T07:33:28.726Z,56.92
2022-08-17T07:35:58.041Z,56.31
2022-08-17T07:38:31.495Z,56.97
2022-08-17T07:41:01.920Z,57.25
2022-08-17T07:43:31.607Z,56.61
2022-08-17T07:46:23.844Z,57.06
2022-08-17T07:48:58.194Z,57.22
2022-08-17T07:51:33.803Z,57.20
2022-08-17T07:54:23.591Z,56.72
2022-08-17T07:57:14.646Z,57.19
2022-08-17T08:00:04.208Z,57.08
2022-08-17T08:02:45.479Z,56.65
2022-08-17T08:05:46.695Z,57.21
2022-08-17T08:08:33.576Z,57.26
2022-08-17T08:11:12.156Z,56.85
2022-08-17T08:13:43.571Z,56.42
2022-08-17T08:16:29.470Z,55.94
2022-08-17T08:19:02.157Z,56.06
2022-08-17T08:21:51.355Z,56.12
2022-08-17T08:24:40.072Z,55.67
2022-08-17T08:27:52.287Z,55.48
2022-08-17T08:30:21.913Z,55.37
2022-08-17T08:32:57.313Z,55.03
2022-08-17T08:35:53.445Z,54.96
2022-08-17T08:38:44.278Z,54.82
2022-08-17T08:41:20.028Z,54.27
2022-08-17T08:44:00.760Z,54.61
2022-08-17T08:46:35.939Z,54.50
2022-08-17T08:50:02.750Z,54.39
2022-08-17T08:52:51.652Z,54.07
2022-08-17T08:55:53.620Z,53.96
2022-08-17T08:58:52.190Z,53.84
2022-08-17T09:01:39.245Z,54.10
2022-08-17T09:05:10.714Z,54.01
2022-08-17T09:07:36.667Z,53.79
2022-08-17T09:10:22.090Z,53.62
2022-08-17T09:13:54.362Z,53.07
2022-08-17T09:16:40.364Z,51.36
2022-08-17T09:19:43.633Z,53.32
2022-08-17T09:22:39.262Z,52.94
2022-08-17T09:25:20.388Z,52.31
2022-08-17T09:28:00.764Z,52.72
2022-08-17T09:30:55.429Z,52.72
2022-08-17T09:33:27.580Z,53.12
2022-08-17T09:36:02.848Z,53.70
2022-08-17T09:39:17.082Z,54.30
2022-08-17T09:41:55.739Z,54.41
2022-08-17T09:44:58.619Z,54.12
2022-08-17T09:47:46.819Z,54.17
2022-08-17T09:50:55.363Z,54.51
2022-08-17T09:53:11.903Z,54.29
2022-08-17T09:56:18.325Z,53.84
2022-08-17T09:59:20.080Z,52.87
2022-08-17T10:02:15.205Z,52.89
2022-08-17T10:05:10.243Z,52.48
2022-08-17T10:08:09.206Z,52.44
2022-08-17T10:10:59.529Z,52.64
2022-08-17T10:13:53.764Z,52.30
2022-08-17T10:16:30.933Z,51.27
2022-08-17T10:19:31.292Z,50.56
2022-08-17T10:22:35.309Z,51.45
2022-08-17T10:25:37.619Z,51.76
2022-08-17T10:28:20.990Z,51.90
2022-08-17T10:31:16.787Z,51.74
2022-08-17T10:34:00.989Z,51.84
2022-08-17T10:37:35.366Z,53.97
2022-08-17T10:40:45.638Z,55.17
2022-08-17T10:43:36.724Z,57.08
2022-08-17T10:46:30.574Z,55.75
2022-08-17T10:49:17.375Z,54.61
2022-08-17T10:51:47.930Z,55.19
2022-08-17T10:54:45.700Z,56.20
2022-08-17T10:57:45.174Z,54.13
2022-08-17T11:00:40.745Z,56.27
2022-08-17T11:03:22.303Z,54.94
2022-08-17T11:06:25.649Z,55.47
2022-08-17T11:09:37.934Z,56.35
2022-08-17T11:12:45.828Z,57.12
2022-08-17T11:16:08.815Z,56.10
2022-08-17T11:19:09.906Z,55.05
2022-08-17T11:22:39.172Z,54.96
2022-08-17T11:25:19.912Z,55.02
2022-08-17T11:27:53.606Z,55.20
2022-08-17T11:30:50.916Z,55.49
2022-08-17T11:33:29.874Z,55.96
2022-08-17T11:36:04.055Z,55.69
2022-08-17T11:39:19.159Z,55.54
2022-08-17T11:42:25.484Z,55.41
2022-08-17T11:45:19.427Z,55.44
2022-08-17T11:48:38.110Z,55.36
2022-08-17T11:51:35.673Z,55.21
2022-08-17T11:54:33.315Z,55.37
2022-08-17T11:57:27.026Z,55.05
2022-08-17T12:00:10.829Z,55.33
2022-08-17T12:02:48.229Z,55.25
2022-08-17T12:05:21.088Z,55.14
2022-08-17T12:07:54.694Z,54.71
2022-08-17T12:10:31.819Z,54.22
2022-08-17T12:13:06.724Z,54.04
2022-08-17T12:15:49.532Z,53.65
2022-08-17T12:18:25.175Z,53.41
2022-08-17T12:21:21.360Z,53.85
2022-08-17T12:24:13.428Z,53.08
2022-08-17T12:26:43.933Z,52.65
2022-08-17T12:29:18.155Z,52.65
2022-08-17T12:32:05.791Z,52.27
2022-08-17T12:34:42.682Z,52.10
2022-08-17T12:37:24.717Z,51.03
2022-08-17T12:40:01.005Z,50.75
2022-08-17T12:42:37.499Z,51.72
2022-08-17T12:45:29.767Z,51.70
2022-08-17T12:48:11.292Z,51.47
2022-08-17T12:50:47.382Z,51.58
2022-08-17T12:53:40.218Z,51.11
2022-08-17T12:56:12.176Z,50.92
2022-08-17T12:58:53.472Z,50.93
2022-08-17T13:01:23.407Z,51.60
2022-08-17T13:03:53.873Z,52.76
2022-08-17T13:06:36.875Z,52.80
2022-08-17T13:09:19.583Z,53.31
2022-08-17T13:12:00.871Z,53.68
2022-08-17T13:14:28.652Z,54.10
2022-08-17T13:16:59.830Z,54.02
2022-08-17T13:19:40.007Z,54.00
2022-08-17T13:22:12.726Z,53.61
2022-08-17T13:25:05.281Z,53.02
2022-08-17T13:27:33.897Z,52.75
2022-08-17T13:30:12.104Z,52.13
2022-08-17T13:32:48.580Z,52.28
2022-08-17T13:35:50.167Z,52.70
2022-08-17T13:38:47.240Z,50.96
2022-08-17T13:41:37.656Z,51.02
2022-08-17T13:44:34.537Z,51.66
2022-08-17T13:47:05.722Z,48.96
2022-08-17T13:49:48.310Z,49.35
2022-08-17T13:52:52.366Z,49.03
2022-08-17T13:55:22.447Z,48.89
2022-08-17T13:58:03.654Z,47.59
2022-08-17T14:00:36.686Z,48.27
2022-08-17T14:03:05.557Z,46.92
2022-08-17T14:05:33.774Z,47.46
2022-08-17T14:08:06.774Z,46.90
2022-08-17T14:10:36.316Z,47.22
2022-08-17T14:13:05.151Z,46.89
2022-08-17T14:15:54.928Z,46.26
2022-08-17T14:18:31.222Z,45.43
2022-08-17T14:21:08.249Z,44.22
2022-08-17T14:23:36.968Z,44.05
2022-08-17T14:26:04.329Z,45.31
2022-08-17T14:28:31.988Z,44.21
2022-08-17T14:31:01.143Z,43.62
2022-08-17T14:33:29.373Z,42.68
2022-08-17T14:35:57.570Z,43.88
2022-08-17T14:38:24.822Z,43.27
2022-08-17T14:40:52.142Z,41.67
2022-08-17T14:43:20.343Z,41.65
2022-08-17T14:45:47.449Z,42.07
2022-08-17T14:48:14.443Z,40.93
2022-08-17T14:50:43.717Z,39.65
2022-08-17T14:53:14.879Z,40.45
2022-08-17T14:55:42.749Z,40.89
2022-08-17T14:58:10.383Z,39.01
2022-08-17T15:00:39.327Z,38.23
2022-08-17T15:03:06.348Z,39.97
2022-08-17T15:05:37.870Z,40.17
2022-08-17T15:08:06.201Z,39.20
2022-08-17T15:10:33.309Z,39.57
2022-08-17T15:13:00.657Z,38.60
2022-08-17T15:15:28.605Z,39.35
2022-08-17T15:17:55.904Z,38.41
2022-08-17T15:20:28.005Z,37.58
2022-08-17T15:22:56.025Z,38.88
2022-08-17T15:25:27.459Z,38.70
2022-08-17T15:27:55.756Z,38.06
2022-08-17T15:30:23.495Z,38.10
2022-08-17T15:32:55.275Z,38.50
2022-08-17T15:35:31.389Z,37.46
2022-08-17T15:38:08.359Z,37.53
2022-08-17T15:40:48.647Z,37.86
2022-08-17T15:43:27.247Z,37.32
2022-08-17T15:46:01.730Z,36.99
2022-08-17T15:48:42.872Z,37.26
2022-08-17T15:51:17.628Z,37.71
2022-08-17T15:53:52.626Z,37.28
2022-08-17T15:56:20.566Z,37.52
2022-08-17T15:58:48.754Z,37.37
2022-08-17T16:03:01.040Z,37.36
2022-08-17T16:04:26.871Z,37.65
2022-08-17T16:06:59.221Z,37.55
2022-08-17T16:09:26.811Z,36.86
2022-08-17T16:11:55.670Z,37.76
2022-08-17T16:14:34.066Z,38.07
2022-08-17T16:17:04.435Z,39.05
2022-08-17T16:19:33.418Z,38.32
2022-08-17T16:22:00.733Z,38.64
2022-08-17T16:24:28.261Z,37.45
2022-08-17T16:26:55.491Z,37.64
2022-08-17T16:29:23.037Z,38.86
2022-08-17T16:31:50.789Z,37.94
2022-08-17T16:34:18.930Z,38.14
2022-08-17T16:36:54.675Z,38.91
2022-08-17T16:39:25.532Z,39.02
2022-08-17T16:41:52.592Z,38.82
2022-08-17T16:44:21.806Z,39.08
2022-08-17T16:46:50.291Z,39.35
2022-08-17T16:49:35.281Z,39.74
2022-08-17T16:52:09.558Z,39.39
2022-08-17T16:54:41.772Z,39.97
2022-08-17T16:57:10.080Z,39.85
2022-08-17T16:59:42.483Z,39.90
2022-08-17T17:02:25.963Z,39.42
2022-08-17T17:05:22.081Z,39.19
2022-08-17T17:08:04.878Z,39.65
2022-08-17T17:10:42.432Z,40.06
2022-08-17T17:13:26.750Z,39.16
2022-08-17T17:16:21.485Z,39.66
2022-08-17T17:19:34.475Z,40.06
2022-08-17T17:22:21.740Z,40.12
2022-08-17T17:25:39.593Z,40.46
2022-08-17T17:28:53.773Z,40.50
2022-08-17T17:31:25.523Z,40.46
2022-08-17T17:34:00.325Z,40.41
2022-08-17T17:36:38.238Z,40.34
2022-08-17T17:39:17.916Z,40.43
2022-08-17T17:41:58.365Z,40.31
2022-08-17T17:44:34.435Z,40.46
2022-08-17T17:47:04.623Z,40.45
2022-08-17T17:49:39.025Z,40.25
2022-08-17T17:52:36.274Z,40.57
2022-08-17T17:55:30.689Z,40.48
2022-08-17T17:58:19.558Z,40.67
2022-08-17T18:01:06.205Z,40.48
2022-08-17T18:04:17.631Z,40.91
2022-08-17T18:07:42.296Z,41.14
2022-08-17T18:10:32.855Z,40.78
2022-08-17T18:13:26.758Z,41.14
2022-08-17T18:15:56.164Z,41.16
2022-08-17T18:18:38.552Z,40.80
2022-08-17T18:21:16.438Z,41.16
2022-08-17T18:23:57.821Z,41.13
2022-08-17T18:26:50.372Z,41.23
2022-08-17T18:29:27.953Z,41.16
2022-08-17T18:32:22.084Z,41.17
2022-08-17T18:35:27.586Z,41.02
2022-08-17T18:38:33.812Z,41.41
2022-08-17T18:41:16.298Z,41.43
2022-08-17T18:43:52.933Z,41.58
2022-08-17T18:46:28.876Z,41.39
2022-08-17T18:49:02.317Z,41.34
2022-08-17T18:51:42.337Z,41.48
2022-08-17T18:54:23.892Z,41.46
2022-08-17T18:56:57.763Z,41.58
2022-08-17T18:59:49.672Z,41.34
2022-08-17T19:02:38.653Z,41.86
2022-08-17T19:05:26.478Z,41.66
2022-08-17T19:07:54.791Z,41.65
2022-08-17T19:10:46.821Z,41.74
2022-08-17T19:13:38.796Z,41.82
2022-08-17T19:16:35.426Z,41.74
2022-08-17T19:19:28.660Z,41.99
2022-08-17T19:22:28.467Z,41.94
2022-08-17T19:25:12.072Z,41.97
2022-08-17T19:28:03.648Z,42.07
2022-08-17T19:30:31.222Z,41.48
2022-08-17T19:32:58.450Z,41.72
2022-08-17T19:35:57.369Z,41.80
2022-08-17T19:38:47.611Z,41.88
2022-08-17T19:41:32.536Z,41.61
2022-08-17T19:44:15.248Z,41.98
2022-08-17T19:47:08.818Z,41.64
2022-08-17T19:50:11.671Z,42.19
2022-08-17T19:53:41.637Z,41.50
2022-08-17T19:56:25.846Z,42.13
2022-08-17T19:59:03.426Z,41.95
2022-08-17T20:01:58.999Z,41.89
2022-08-17T20:04:41.040Z,41.95
2022-08-17T20:07:19.174Z,41.78
2022-08-17T20:10:06.497Z,41.95
2022-08-17T20:12:40.175Z,41.96
2022-08-17T20:15:11.292Z,41.94
2022-08-17T20:17:42.895Z,42.28
2022-08-17T20:20:26.111Z,41.78
2022-08-17T20:23:23.783Z,41.88
2022-08-17T20:26:43.327Z,41.80
2022-08-17T20:29:37.232Z,42.13
2022-08-17T20:32:28.413Z,42.66
2022-08-17T20:35:23.959Z,42.22
2022-08-17T20:38:06.213Z,42.21
2022-08-17T20:41:01.265Z,42.32
2022-08-17T20:43:34.199Z,42.59
2022-08-17T20:46:19.042Z,42.48
2022-08-17T20:48:51.870Z,42.75
2022-08-17T20:51:32.231Z,42.36
2022-08-17T20:54:07.684Z,42.62
2022-08-17T20:56:43.769Z,42.37
2022-08-17T20:59:25.759Z,42.39
2022-08-17T21:02:18.604Z,42.96
2022-08-17T21:04:54.393Z,43.62
2022-08-17T21:07:43.117Z,43.09
2022-08-17T21:10:23.672Z,42.70
2022-08-17T21:13:23.804Z,43.16
2022-08-17T21:16:25.676Z,43.73
2022-08-17T21:19:22.163Z,43.36
2022-08-17T21:22:00.623Z,43.73
2022-08-17T21:25:03.266Z,43.13
2022-08-17T21:28:02.534Z,43.01
2022-08-17T21:30:29.346Z,43.63
2022-08-17T21:33:18.532Z,45.02
2022-08-17T21:36:13.442Z,45.35
2022-08-17T21:38:55.693Z,43.81
2022-08-17T21:41:44.085Z,44.21
2022-08-17T21:44:34.976Z,45.27
2022-08-17T21:47:28.343Z,44.04
2022-08-17T21:50:13.055Z,44.25
2022-08-17T21:52:40.484Z,45.01
2022-08-17T21:55:18.043Z,45.56
2022-08-17T21:57:53.041Z,47.03
2022-08-17T22:00:36.734Z,47.10
2022-08-17T22:03:06.726Z,47.64
2022-08-17T22:05:39.367Z,47.96
2022-08-17T22:08:19.833Z,48.70
2022-08-17T22:10:50.991Z,48.11
2022-08-17T22:13:17.958Z,48.35
2022-08-17T22:16:27.887Z,48.24
2022-08-17T22:18:54.098Z,48.05
2022-08-17T22:21:22.530Z,47.75
2022-08-17T22:24:21.339Z,48.91
2022-08-17T22:27:11.540Z,48.64
2022-08-17T22:29:59.129Z,49.11
2022-08-17T22:32:44.517Z,48.70
2022-08-17T22:35:42.726Z,48.34
2022-08-17T22:38:18.868Z,48.63
2022-08-17T22:41:33.964Z,48.69
2022-08-17T22:44:41.201Z,48.05
2022-08-17T22:47:32.302Z,47.67
2022-08-17T22:50:02.386Z,47.69
2022-08-17T22:53:02.345Z,48.80
2022-08-17T22:55:52.353Z,48.98
2022-08-17T22:58:42.489Z,51.90
2022-08-17T23:01:29.624Z,50.61
2022-08-17T23:04:05.797Z,51.35
2022-08-17T23:06:35.874Z,52.13
2022-08-17T23:09:05.756Z,52.63
2022-08-17T23:11:50.507Z,51.04
2022-08-17T23:14:20.540Z,51.80
2022-08-17T23:16:50.251Z,52.30
2022-08-17T23:19:21.617Z,52.67
2022-08-17T23:21:52.549Z,52.91
2022-08-17T23:24:45.444Z,52.49
2022-08-17T23:27:12.662Z,53.83
2022-08-17T23:29:41.917Z,53.96
2022-08-17T23:32:14.552Z,54.23
2022-08-17T23:34:44.017Z,53.96
2022-08-17T23:37:13.657Z,54.13
2022-08-17T23:39:40.749Z,55.81
2022-08-17T23:42:11.039Z,55.63
2022-08-17T23:44:39.835Z,55.51
2022-08-17T23:47:08.012Z,55.81
2022-08-17T23:49:36.168Z,56.23
2022-08-17T23:52:07.687Z,54.91
2022-08-17T23:54:43.715Z,54.63
2022-08-17T23:57:15.640Z,55.93
2022-08-17T23:59:43.905Z,55.58
